createdAt,value
2023-03-16T00:00:27.942Z,21.70
2023-03-16T00:01:30.529Z,22.38
2023-03-16T00:02:33.128Z,30.05
2023-03-16T00:03:36.588Z,26.90
2023-03-16T00:04:40.017Z,26.50
2023-03-16T00:05:46.470Z,26.58
2023-03-16T00:06:49.054Z,30.52
2023-03-16T00:07:51.700Z,24.05
2023-03-16T00:08:59.025Z,30.77
2023-03-16T00:10:01.644Z,26.48
2023-03-16T00:11:04.252Z,25.55
2023-03-16T00:12:08.712Z,25.58
2023-03-16T00:13:12.438Z,22.45
2023-03-16T00:14:14.933Z,25.40
2023-03-16T00:15:17.546Z,27.40
2023-03-16T00:16:20.047Z,23.40
2023-03-16T00:17:22.564Z,22.08
2023-03-16T00:18:27.605Z,21.88
2023-03-16T00:19:30.038Z,25.75
2023-03-16T00:20:33.614Z,24.77
2023-03-16T00:21:36.307Z,22.90
2023-03-16T00:22:38.733Z,25.08
2023-03-16T00:23:42.603Z,25.38
2023-03-16T00:24:45.081Z,21.35
2023-03-16T00:25:47.602Z,25.65
2023-03-16T00:26:50.133Z,21.98
2023-03-16T00:27:52.710Z,18.33
2023-03-16T00:28:55.176Z,19.75
2023-03-16T00:29:57.886Z,19.30
2023-03-16T00:31:03.076Z,20.48
2023-03-16T00:32:05.858Z,18.88
2023-03-16T00:33:08.527Z,22.00
2023-03-16T00:34:15.432Z,26.67
2023-03-16T00:35:18.429Z,24.63
2023-03-16T00:36:22.821Z,23.42
2023-03-16T00:37:26.828Z,22.55
2023-03-16T00:38:34.993Z,18.00
2023-03-16T00:39:37.513Z,28.70
2023-03-16T00:40:40.348Z,22.25
2023-03-16T00:41:43.019Z,24.50
2023-03-16T00:42:45.628Z,16.23
2023-03-16T00:43:49.034Z,22.85
2023-03-16T00:44:57.110Z,22.48
2023-03-16T00:46:06.704Z,17.38
2023-03-16T00:47:10.310Z,21.33
2023-03-16T00:48:12.855Z,19.38
2023-03-16T00:49:15.276Z,20.20
2023-03-16T00:50:17.865Z,20.25
2023-03-16T00:51:20.509Z,18.05
2023-03-16T00:52:23.710Z,15.52
2023-03-16T00:53:26.400Z,21.67
2023-03-16T00:54:29.866Z,21.33
2023-03-16T00:55:33.488Z,18.73
2023-03-16T00:56:35.908Z,15.07
2023-03-16T00:57:38.602Z,18.60
2023-03-16T00:58:43.096Z,15.55
2023-03-16T00:59:47.004Z,16.88
2023-03-16T01:00:49.769Z,15.55
2023-03-16T01:01:55.795Z,20.05
2023-03-16T01:02:58.580Z,19.63
2023-03-16T01:04:01.810Z,15.77
2023-03-16T01:05:05.781Z,28.05
2023-03-16T01:06:10.944Z,20.80
2023-03-16T01:07:14.527Z,23.13
2023-03-16T01:08:17.085Z,20.52
2023-03-16T01:09:19.652Z,20.65
2023-03-16T01:10:22.147Z,19.08
2023-03-16T01:11:24.777Z,18.08
2023-03-16T01:12:27.932Z,20.75
2023-03-16T01:13:31.014Z,15.73
2023-03-16T01:14:37.439Z,17.33
2023-03-16T01:15:40.194Z,23.20
2023-03-16T01:16:45.933Z,33.17
2023-03-16T01:17:49.161Z,18.08
2023-03-16T01:18:52.703Z,21.67
2023-03-16T01:19:55.249Z,16.67
2023-03-16T01:20:58.008Z,17.85
2023-03-16T01:22:00.463Z,23.83
2023-03-16T01:23:03.444Z,19.25
2023-03-16T01:24:06.075Z,24.13
2023-03-16T01:25:12.125Z,29.38
2023-03-16T01:26:18.102Z,25.73
2023-03-16T01:27:22.811Z,26.23
2023-03-16T01:28:27.467Z,24.15
2023-03-16T01:29:30.469Z,21.45
2023-03-16T01:30:35.714Z,19.42
2023-03-16T01:31:39.043Z,18.65
2023-03-16T01:32:42.735Z,18.20
2023-03-16T01:33:48.070Z,18.45
2023-03-16T01:34:55.695Z,20.88
2023-03-16T01:36:01.987Z,16.35
2023-03-16T01:37:10.354Z,15.43
2023-03-16T01:38:28.911Z,13.85
2023-03-16T01:39:31.530Z,26.48
2023-03-16T01:40:34.407Z,20.77
2023-03-16T01:41:37.340Z,22.05
2023-03-16T01:42:49.866Z,19.67
2023-03-16T01:43:58.533Z,20.55
2023-03-16T01:45:05.822Z,17.55
2023-03-16T01:46:21.727Z,18.98
2023-03-16T01:47:25.440Z,16.75
2023-03-16T01:48:28.311Z,14.05
2023-03-16T01:49:35.241Z,21.58
2023-03-16T01:50:38.054Z,24.85
2023-03-16T01:52:02.317Z,18.58
2023-03-16T01:53:06.673Z,15.48
2023-03-16T01:54:15.110Z,13.93
2023-03-16T01:55:18.437Z,19.10
2023-03-16T01:56:29.422Z,22.45
2023-03-16T01:57:37.063Z,19.00
2023-03-16T01:58:40.505Z,19.67
2023-03-16T01:59:47.029Z,14.18
2023-03-16T02:00:50.099Z,16.83
2023-03-16T02:01:59.138Z,17.15
2023-03-16T02:03:13.776Z,13.43
2023-03-16T02:04:47.070Z,22.65
2023-03-16T02:05:59.594Z,17.85
2023-03-16T02:07:02.469Z,15.05
2023-03-16T02:08:07.015Z,20.10
2023-03-16T02:09:09.675Z,28.83
2023-03-16T02:10:14.364Z,34.10
2023-03-16T02:11:22.522Z,33.17
2023-03-16T02:12:38.365Z,20.95
2023-03-16T02:13:43.602Z,25.52
2023-03-16T02:14:48.441Z,18.17
2023-03-16T02:15:53.562Z,24.02
2023-03-16T02:16:57.149Z,26.40
2023-03-16T02:18:00.793Z,26.75
2023-03-16T02:19:08.448Z,24.00
2023-03-16T02:20:37.856Z,21.00
2023-03-16T02:21:56.924Z,20.08
2023-03-16T02:22:59.602Z,21.38
2023-03-16T02:24:03.344Z,18.13
2023-03-16T02:25:08.770Z,16.60
2023-03-16T02:26:33.253Z,18.50
2023-03-16T02:28:02.413Z,26.48
2023-03-16T02:29:40.585Z,24.75
2023-03-16T02:30:43.660Z,14.95
2023-03-16T02:31:47.628Z,19.80
2023-03-16T02:32:53.400Z,24.75
2023-03-16T02:33:57.764Z,20.83
2023-03-16T02:35:01.778Z,28.27
2023-03-16T02:36:04.679Z,15.27
2023-03-16T02:37:07.741Z,17.58
2023-03-16T02:38:10.678Z,25.95
2023-03-16T02:39:19.638Z,24.67
2023-03-16T02:40:29.811Z,19.67
2023-03-16T02:41:34.571Z,21.27
2023-03-16T02:42:37.195Z,23.95
2023-03-16T02:43:43.773Z,25.35
2023-03-16T02:44:57.513Z,20.95
2023-03-16T02:46:05.388Z,17.50
2023-03-16T02:47:16.152Z,21.15
2023-03-16T02:48:23.709Z,18.52
2023-03-16T02:49:27.832Z,21.48
2023-03-16T02:50:30.568Z,19.23
2023-03-16T02:51:35.635Z,21.70
2023-03-16T02:52:38.939Z,21.25
2023-03-16T02:53:42.034Z,25.27
2023-03-16T02:54:44.868Z,18.58
2023-03-16T02:55:47.677Z,17.75
2023-03-16T02:56:50.484Z,22.30
2023-03-16T02:57:53.397Z,23.45
2023-03-16T02:58:57.903Z,20.70
2023-03-16T03:00:01.571Z,21.13
2023-03-16T03:01:06.329Z,22.38
2023-03-16T03:02:11.467Z,24.70
2023-03-16T03:03:14.561Z,15.07
2023-03-16T03:04:17.330Z,18.13
2023-03-16T03:05:20.439Z,20.08
2023-03-16T03:06:24.734Z,18.92
2023-03-16T03:07:32.076Z,22.17
2023-03-16T03:08:41.125Z,21.88
2023-03-16T03:09:43.937Z,19.30
2023-03-16T03:10:46.964Z,23.50
2023-03-16T03:11:50.643Z,22.27
2023-03-16T03:12:53.246Z,19.73
2023-03-16T03:13:57.429Z,24.83
2023-03-16T03:15:02.812Z,20.25
2023-03-16T03:16:14.773Z,22.25
2023-03-16T03:17:17.406Z,16.73
2023-03-16T03:18:19.971Z,24.70
2023-03-16T03:19:23.513Z,23.33
2023-03-16T03:20:26.981Z,23.55
2023-03-16T03:21:29.683Z,21.88
2023-03-16T03:22:32.346Z,21.17
2023-03-16T03:23:37.944Z,23.20
2023-03-16T03:24:43.770Z,21.20
2023-03-16T03:25:47.986Z,27.85
2023-03-16T03:26:52.286Z,25.95
2023-03-16T03:27:56.308Z,26.20
2023-03-16T03:29:00.271Z,22.02
2023-03-16T03:30:02.888Z,29.60
2023-03-16T03:31:05.530Z,23.40
2023-03-16T03:32:08.443Z,24.13
2023-03-16T03:33:10.972Z,18.65
2023-03-16T03:34:13.521Z,18.73
2023-03-16T03:35:16.605Z,22.27
2023-03-16T03:36:19.084Z,27.00
2023-03-16T03:37:22.084Z,26.80
2023-03-16T03:38:25.849Z,20.80
2023-03-16T03:39:32.622Z,21.30
2023-03-16T03:40:35.204Z,22.73
2023-03-16T03:41:39.297Z,26.67
2023-03-16T03:42:43.266Z,17.95
2023-03-16T03:43:46.914Z,28.98
2023-03-16T03:44:52.608Z,27.30
2023-03-16T03:45:59.497Z,25.23
2023-03-16T03:47:02.192Z,23.05
2023-03-16T03:48:05.368Z,23.42
2023-03-16T03:49:09.264Z,26.15
2023-03-16T03:50:14.109Z,26.10
2023-03-16T03:51:35.999Z,21.83
2023-03-16T03:52:42.269Z,32.08
2023-03-16T03:53:44.788Z,25.38
2023-03-16T03:54:50.251Z,30.85
2023-03-16T03:55:53.738Z,25.02
2023-03-16T03:56:57.371Z,20.92
2023-03-16T03:58:00.252Z,20.33
2023-03-16T03:59:02.960Z,26.33
2023-03-16T04:00:25.821Z,22.98
2023-03-16T04:01:28.670Z,25.85
2023-03-16T04:02:31.396Z,27.33
2023-03-16T04:03:34.124Z,26.33
2023-03-16T04:04:37.242Z,26.92
2023-03-16T04:05:39.901Z,18.83
2023-03-16T04:06:43.452Z,25.73
2023-03-16T04:07:46.092Z,27.27
2023-03-16T04:08:51.144Z,27.13
2023-03-16T04:09:56.730Z,30.52
2023-03-16T04:11:07.800Z,37.13
2023-03-16T04:12:11.524Z,27.33
2023-03-16T04:13:14.308Z,26.63
2023-03-16T04:14:16.758Z,29.50
2023-03-16T04:15:20.334Z,34.38
2023-03-16T04:16:44.659Z,23.48
2023-03-16T04:17:50.181Z,28.67
2023-03-16T04:18:55.932Z,35.78
2023-03-16T04:19:59.012Z,22.55
2023-03-16T04:21:01.507Z,25.20
2023-03-16T04:22:04.078Z,25.33
2023-03-16T04:23:07.229Z,31.00
2023-03-16T04:24:14.855Z,25.88
2023-03-16T04:25:18.563Z,25.75
2023-03-16T04:26:22.153Z,28.60
2023-03-16T04:27:25.253Z,26.25
2023-03-16T04:28:27.961Z,36.80
2023-03-16T04:29:32.065Z,27.50
2023-03-16T04:30:35.589Z,22.92
2023-03-16T04:31:51.059Z,30.10
2023-03-16T04:32:54.047Z,19.30
2023-03-16T04:33:57.687Z,29.17
2023-03-16T04:35:02.020Z,33.45
2023-03-16T04:36:17.132Z,23.52
2023-03-16T04:37:20.221Z,34.60
2023-03-16T04:38:22.828Z,25.75
2023-03-16T04:39:34.872Z,24.40
2023-03-16T04:40:37.508Z,22.55
2023-03-16T04:41:47.060Z,21.45
2023-03-16T04:42:56.783Z,26.48
2023-03-16T04:43:59.428Z,25.42
2023-03-16T04:45:02.466Z,27.92
2023-03-16T04:46:06.597Z,23.38
2023-03-16T04:47:13.039Z,35.50
2023-03-16T04:48:17.106Z,26.25
2023-03-16T04:49:20.270Z,27.85
2023-03-16T04:50:22.899Z,28.38
2023-03-16T04:51:28.837Z,26.58
2023-03-16T04:52:42.386Z,19.48
2023-03-16T04:53:45.114Z,30.70
2023-03-16T04:55:00.553Z,21.55
2023-03-16T04:56:04.253Z,26.48
2023-03-16T04:57:08.518Z,25.95
2023-03-16T04:58:19.027Z,29.52
2023-03-16T04:59:24.922Z,25.25
2023-03-16T05:00:35.756Z,34.88
2023-03-16T05:01:55.122Z,26.70
2023-03-16T05:02:57.966Z,32.10
2023-03-16T05:04:00.504Z,28.95
2023-03-16T05:05:05.797Z,24.17
2023-03-16T05:06:10.091Z,29.33
2023-03-16T05:07:12.552Z,31.20
2023-03-16T05:08:18.435Z,27.50
2023-03-16T05:09:24.253Z,27.00
2023-03-16T05:10:27.371Z,28.30
2023-03-16T05:11:30.129Z,24.85
2023-03-16T05:12:35.694Z,20.35
2023-03-16T05:13:40.897Z,29.65
2023-03-16T05:14:43.484Z,23.95
2023-03-16T05:16:08.993Z,23.98
2023-03-16T05:17:15.249Z,25.65
2023-03-16T05:18:21.607Z,25.35
2023-03-16T05:19:24.664Z,22.50
2023-03-16T05:20:27.416Z,27.55
2023-03-16T05:21:37.622Z,33.10
2023-03-16T05:22:44.758Z,24.00
2023-03-16T05:23:54.747Z,23.30
2023-03-16T05:24:57.615Z,23.45
2023-03-16T05:26:01.062Z,26.77
2023-03-16T05:27:05.936Z,23.65
2023-03-16T05:28:09.333Z,27.23
2023-03-16T05:29:22.336Z,24.25
2023-03-16T05:30:26.825Z,33.90
2023-03-16T05:31:36.283Z,30.73
2023-03-16T05:32:45.097Z,26.48
2023-03-16T05:33:48.776Z,23.67
2023-03-16T05:34:54.594Z,24.90
2023-03-16T05:35:58.185Z,24.52
2023-03-16T05:37:01.070Z,32.63
2023-03-16T05:38:04.014Z,34.85
2023-03-16T05:39:08.775Z,28.20
2023-03-16T05:40:18.607Z,49.85
2023-03-16T05:41:28.408Z,87.22
2023-03-16T05:43:00.673Z,70.72
2023-03-16T05:44:05.712Z,39.80
2023-03-16T05:45:27.861Z,32.90
2023-03-16T05:46:47.172Z,24.98
2023-03-16T05:47:50.161Z,24.50
2023-03-16T05:48:53.254Z,28.55
2023-03-16T05:49:57.042Z,26.20
2023-03-16T05:51:14.270Z,22.88
2023-03-16T05:52:17.709Z,22.10
2023-03-16T05:53:20.744Z,25.60
2023-03-16T05:54:23.504Z,21.23
2023-03-16T05:55:26.091Z,27.98
2023-03-16T05:56:33.595Z,20.67
2023-03-16T05:57:36.562Z,25.05
2023-03-16T05:58:39.194Z,21.23
2023-03-16T05:59:44.020Z,27.75
2023-03-16T06:00:47.688Z,26.67
2023-03-16T06:02:04.182Z,24.85
2023-03-16T06:03:07.154Z,29.35
2023-03-16T06:04:12.244Z,46.35
2023-03-16T06:05:18.564Z,62.80
2023-03-16T06:06:23.013Z,64.43
2023-03-16T06:07:31.442Z,45.58
2023-03-16T06:08:35.119Z,53.72
2023-03-16T06:09:43.588Z,51.95
2023-03-16T06:10:50.355Z,60.22
2023-03-16T06:11:54.178Z,31.80
2023-03-16T06:12:58.466Z,30.55
2023-03-16T06:14:04.350Z,34.53
2023-03-16T06:15:08.096Z,28.95
2023-03-16T06:16:13.909Z,25.02
2023-03-16T06:17:16.592Z,23.45
2023-03-16T06:18:19.058Z,24.02
2023-03-16T06:19:21.930Z,21.13
2023-03-16T06:20:29.670Z,22.38
2023-03-16T06:21:32.691Z,21.17
2023-03-16T06:22:42.333Z,17.52
2023-03-16T06:23:45.312Z,23.83
2023-03-16T06:24:47.816Z,20.67
2023-03-16T06:25:51.249Z,21.10
2023-03-16T06:26:56.962Z,16.70
2023-03-16T06:28:05.464Z,19.92
2023-03-16T06:29:08.108Z,22.45
2023-03-16T06:30:14.289Z,15.80
2023-03-16T06:31:16.854Z,22.50
2023-03-16T06:32:22.074Z,19.58
2023-03-16T06:33:24.896Z,20.20
2023-03-16T06:34:27.631Z,24.08
2023-03-16T06:35:31.356Z,25.77
2023-03-16T06:36:54.144Z,18.95
2023-03-16T06:37:56.785Z,19.63
2023-03-16T06:39:14.752Z,22.35
2023-03-16T06:40:21.146Z,22.45
2023-03-16T06:41:23.696Z,18.85
2023-03-16T06:42:26.313Z,18.63
2023-03-16T06:43:28.956Z,22.73
2023-03-16T06:44:32.087Z,21.33
2023-03-16T06:46:45.748Z,24.63
2023-03-16T06:47:48.755Z,25.70
2023-03-16T06:48:51.546Z,21.80
2023-03-16T06:49:55.379Z,21.80
2023-03-16T06:51:01.947Z,20.15
2023-03-16T06:52:05.836Z,23.15
2023-03-16T06:53:08.275Z,24.17
2023-03-16T06:54:12.260Z,20.60
2023-03-16T06:55:16.032Z,20.88
2023-03-16T06:56:21.766Z,22.67
2023-03-16T06:57:25.778Z,20.35
2023-03-16T06:58:28.198Z,20.35
2023-03-16T06:59:31.404Z,27.67
2023-03-16T07:00:34.241Z,28.48
2023-03-16T07:01:36.943Z,25.30
2023-03-16T07:02:40.579Z,21.35
2023-03-16T07:03:44.186Z,21.95
2023-03-16T07:04:58.130Z,21.30
2023-03-16T07:06:00.736Z,20.75
2023-03-16T07:07:03.322Z,24.70
2023-03-16T07:08:06.181Z,20.40
2023-03-16T07:09:08.991Z,20.90
2023-03-16T07:10:16.220Z,20.60
2023-03-16T07:11:18.917Z,21.45
2023-03-16T07:12:21.396Z,23.10
2023-03-16T07:13:23.963Z,21.98
2023-03-16T07:14:26.479Z,22.85
2023-03-16T07:15:31.432Z,24.08
2023-03-16T07:16:36.684Z,22.35
2023-03-16T07:17:42.705Z,22.40
2023-03-16T07:18:45.444Z,25.27
2023-03-16T07:19:50.704Z,20.95
2023-03-16T07:20:54.437Z,19.58
2023-03-16T07:21:59.641Z,20.65
2023-03-16T07:23:04.729Z,21.65
2023-03-16T07:24:09.617Z,24.88
2023-03-16T07:25:14.003Z,23.25
2023-03-16T07:26:21.712Z,18.27
2023-03-16T07:27:29.940Z,22.00
2023-03-16T07:28:35.099Z,19.98
2023-03-16T07:29:38.560Z,20.98
2023-03-16T07:30:45.975Z,21.00
2023-03-16T07:31:56.218Z,21.83
2023-03-16T07:33:05.837Z,23.05
2023-03-16T07:34:08.977Z,23.35
2023-03-16T07:35:19.028Z,20.77
2023-03-16T07:36:21.738Z,17.20
2023-03-16T07:37:30.812Z,23.05
2023-03-16T07:38:35.057Z,23.33
2023-03-16T07:39:38.070Z,19.80
2023-03-16T07:40:53.059Z,23.52
2023-03-16T07:41:58.219Z,20.38
2023-03-16T07:43:27.313Z,19.60
2023-03-16T07:44:32.020Z,18.52
2023-03-16T07:45:34.712Z,22.35
2023-03-16T07:46:38.911Z,17.33
2023-03-16T07:47:41.761Z,18.60
2023-03-16T07:49:12.284Z,16.88
2023-03-16T07:50:17.035Z,18.15
2023-03-16T07:51:21.571Z,22.17
2023-03-16T07:52:25.607Z,19.38
2023-03-16T07:53:28.153Z,23.40
2023-03-16T07:54:47.103Z,15.07
2023-03-16T07:55:49.619Z,23.70
2023-03-16T07:56:53.783Z,22.13
2023-03-16T07:58:11.672Z,18.45
2023-03-16T07:59:17.043Z,16.15
2023-03-16T08:00:23.935Z,20.77
2023-03-16T08:01:26.618Z,19.45
2023-03-16T08:02:29.360Z,19.42
2023-03-16T08:03:32.333Z,18.88
2023-03-16T08:04:35.059Z,22.08
2023-03-16T08:05:38.790Z,16.77
2023-03-16T08:06:47.962Z,15.18
2023-03-16T08:07:51.535Z,22.20
2023-03-16T08:08:59.157Z,18.88
2023-03-16T08:10:10.078Z,14.25
2023-03-16T08:11:24.064Z,16.27
2023-03-16T08:12:34.058Z,17.17
2023-03-16T08:13:37.518Z,18.42
2023-03-16T08:14:40.167Z,15.27
2023-03-16T08:15:58.618Z,14.65
2023-03-16T08:17:21.767Z,15.63
2023-03-16T08:18:26.725Z,16.15
2023-03-16T08:19:30.112Z,17.63
2023-03-16T08:20:35.710Z,15.88
2023-03-16T08:21:53.187Z,16.33
2023-03-16T08:23:00.778Z,14.27
2023-03-16T08:24:11.102Z,12.70
2023-03-16T08:25:15.652Z,17.23
2023-03-16T08:26:28.036Z,14.32
2023-03-16T08:27:33.772Z,15.38
2023-03-16T08:28:40.380Z,13.10
2023-03-16T08:29:46.623Z,13.68
2023-03-16T08:30:53.824Z,11.88
2023-03-16T08:32:15.056Z,9.80
2023-03-16T08:33:23.003Z,15.35
2023-03-16T08:34:28.078Z,22.23
2023-03-16T08:35:31.317Z,12.25
2023-03-16T08:36:33.875Z,13.63
2023-03-16T08:37:36.904Z,11.70
2023-03-16T08:39:03.868Z,11.07
2023-03-16T08:40:14.000Z,10.60
2023-03-16T08:41:17.467Z,8.32
2023-03-16T08:42:23.686Z,10.10
2023-03-16T08:43:32.735Z,8.63
2023-03-16T08:44:36.532Z,11.18
2023-03-16T08:45:39.101Z,9.75
2023-03-16T08:46:42.682Z,12.35
2023-03-16T08:47:45.664Z,10.48
2023-03-16T08:48:50.362Z,9.18
2023-03-16T08:49:52.943Z,8.95
2023-03-16T08:50:55.530Z,8.90
2023-03-16T08:51:58.046Z,15.52
2023-03-16T08:53:01.213Z,9.90
2023-03-16T08:54:03.772Z,8.55
2023-03-16T08:55:07.350Z,8.88
2023-03-16T08:56:12.707Z,15.65
2023-03-16T08:57:15.634Z,10.68
2023-03-16T08:58:18.135Z,8.35
2023-03-16T08:59:29.841Z,9.63
2023-03-16T09:00:33.267Z,7.53
2023-03-16T09:01:35.872Z,10.32
2023-03-16T09:02:40.861Z,10.75
2023-03-16T09:03:45.866Z,8.60
2023-03-16T09:04:49.846Z,8.40
2023-03-16T09:05:52.797Z,11.02
2023-03-16T09:07:08.021Z,14.00
2023-03-16T09:08:12.881Z,10.90
2023-03-16T09:09:15.649Z,8.00
2023-03-16T09:10:19.047Z,7.55
2023-03-16T09:11:22.275Z,7.90
2023-03-16T09:12:25.237Z,6.85
2023-03-16T09:13:28.825Z,12.80
2023-03-16T09:14:31.450Z,8.95
2023-03-16T09:15:34.057Z,9.98
2023-03-16T09:16:36.780Z,12.07
2023-03-16T09:17:41.812Z,8.93
2023-03-16T09:18:44.898Z,7.40
2023-03-16T09:19:51.661Z,6.82
2023-03-16T09:21:02.407Z,6.35
2023-03-16T09:22:05.027Z,9.43
2023-03-16T09:23:07.669Z,6.65
2023-03-16T09:24:10.394Z,4.82
2023-03-16T09:25:12.990Z,7.57
2023-03-16T09:26:16.070Z,6.50
2023-03-16T09:27:19.307Z,7.20
2023-03-16T09:28:22.299Z,7.40
2023-03-16T09:29:25.064Z,7.22
2023-03-16T09:30:28.447Z,11.90
2023-03-16T09:31:31.233Z,8.68
2023-03-16T09:32:35.253Z,6.55
2023-03-16T09:33:37.764Z,7.63
2023-03-16T09:34:40.359Z,6.43
2023-03-16T09:35:45.193Z,5.65
2023-03-16T09:36:47.738Z,8.75
2023-03-16T09:38:04.815Z,8.98
2023-03-16T09:39:08.074Z,6.47
2023-03-16T09:40:21.949Z,6.68
2023-03-16T09:41:33.588Z,7.22
2023-03-16T09:42:46.266Z,6.45
2023-03-16T09:43:55.577Z,5.03
2023-03-16T09:45:06.948Z,4.68
2023-03-16T09:46:36.121Z,4.88
2023-03-16T09:47:38.931Z,4.97
2023-03-16T09:48:42.614Z,7.35
2023-03-16T09:49:47.678Z,6.45
2023-03-16T09:50:51.386Z,4.45
2023-03-16T09:52:00.702Z,8.90
2023-03-16T09:53:19.151Z,6.87
2023-03-16T09:54:44.063Z,7.00
2023-03-16T09:55:50.173Z,5.22
2023-03-16T09:56:52.956Z,3.00
2023-03-16T09:57:57.443Z,4.85
2023-03-16T09:58:59.964Z,4.38
2023-03-16T10:00:22.118Z,4.75
2023-03-16T10:02:12.859Z,8.05
2023-03-16T10:03:31.427Z,4.43
2023-03-16T10:05:03.527Z,6.57
2023-03-16T10:06:10.089Z,5.80
2023-03-16T10:07:44.594Z,4.55
2023-03-16T10:08:55.597Z,4.22
2023-03-16T10:10:02.871Z,4.50
2023-03-16T10:11:28.529Z,5.80
2023-03-16T10:12:35.304Z,6.93
2023-03-16T10:14:01.314Z,6.25
2023-03-16T10:15:12.281Z,4.82
2023-03-16T10:16:37.479Z,5.47
2023-03-16T10:17:52.754Z,5.88
2023-03-16T10:19:34.501Z,7.13
2023-03-16T10:20:37.968Z,5.75
2023-03-16T10:21:41.754Z,5.55
2023-03-16T10:22:46.593Z,5.65
2023-03-16T10:23:49.916Z,7.43
2023-03-16T10:25:16.689Z,8.35
2023-03-16T10:26:24.145Z,5.68
2023-03-16T10:27:33.291Z,5.40
2023-03-16T10:28:37.726Z,6.10
2023-03-16T10:29:40.431Z,7.30
2023-03-16T10:30:44.033Z,4.07
2023-03-16T10:31:47.512Z,7.30
2023-03-16T10:32:50.352Z,4.20
2023-03-16T10:33:58.495Z,5.35
2023-03-16T10:35:08.295Z,4.40
2023-03-16T10:36:33.528Z,5.50
2023-03-16T10:37:37.529Z,6.15
2023-03-16T10:38:46.900Z,7.88
2023-03-16T10:39:49.720Z,5.85
2023-03-16T10:40:53.295Z,10.27
2023-03-16T10:41:57.365Z,7.03
2023-03-16T10:43:13.639Z,7.82
2023-03-16T10:44:22.237Z,9.98
2023-03-16T10:45:34.140Z,7.45
2023-03-16T10:46:40.105Z,10.10
2023-03-16T10:47:42.878Z,9.63
2023-03-16T10:48:59.798Z,4.20
2023-03-16T10:50:20.705Z,7.38
2023-03-16T10:51:26.492Z,8.45
2023-03-16T10:52:40.465Z,10.13
2023-03-16T10:53:44.668Z,8.20
2023-03-16T10:54:57.530Z,6.90
2023-03-16T10:56:02.312Z,12.18
2023-03-16T10:57:21.503Z,8.10
2023-03-16T10:58:26.686Z,8.55
2023-03-16T10:59:29.748Z,10.70
2023-03-16T11:00:43.474Z,10.50
2023-03-16T11:01:50.273Z,12.70
2023-03-16T11:02:56.978Z,11.35
2023-03-16T11:04:00.220Z,10.20
2023-03-16T11:05:33.487Z,11.98
2023-03-16T11:06:36.463Z,11.20
2023-03-16T11:07:39.422Z,11.35
2023-03-16T11:08:42.000Z,18.00
2023-03-16T11:09:45.448Z,11.60
2023-03-16T11:10:57.776Z,12.88
2023-03-16T11:12:12.587Z,10.48
2023-03-16T11:13:17.785Z,16.63
2023-03-16T11:14:23.350Z,14.70
2023-03-16T11:15:26.680Z,14.32
2023-03-16T11:16:38.547Z,11.52
2023-03-16T11:17:53.701Z,12.50
2023-03-16T11:19:04.911Z,12.10
2023-03-16T11:20:17.587Z,12.43
2023-03-16T11:21:51.077Z,10.07
2023-03-16T11:22:53.657Z,13.23
2023-03-16T11:23:58.075Z,11.55
2023-03-16T11:25:04.331Z,14.38
2023-03-16T11:26:21.353Z,13.10
2023-03-16T11:27:43.709Z,13.43
2023-03-16T11:28:50.694Z,15.80
2023-03-16T11:30:02.368Z,11.40
2023-03-16T11:31:39.491Z,13.77
2023-03-16T11:32:47.893Z,12.80
2023-03-16T11:33:51.165Z,10.85
2023-03-16T11:34:54.043Z,16.90
2023-03-16T11:36:21.415Z,10.98
2023-03-16T11:37:23.982Z,14.30
2023-03-16T11:38:42.059Z,11.75
2023-03-16T11:40:15.600Z,13.02
2023-03-16T11:41:34.851Z,10.15
2023-03-16T11:42:39.687Z,10.70
2023-03-16T11:43:48.567Z,8.80
2023-03-16T11:45:04.172Z,11.63
2023-03-16T11:46:28.777Z,12.93
2023-03-16T11:47:40.245Z,12.45
2023-03-16T11:49:25.481Z,10.10
2023-03-16T11:50:37.801Z,13.55
2023-03-16T11:51:49.314Z,13.18
2023-03-16T11:53:18.369Z,10.20
2023-03-16T11:54:29.710Z,10.52
2023-03-16T11:55:35.140Z,12.02
2023-03-16T11:56:47.180Z,16.60
2023-03-16T11:58:28.309Z,12.02
2023-03-16T12:01:15.384Z,10.98
2023-03-16T12:02:37.161Z,9.05
2023-03-16T12:03:46.022Z,11.85
2023-03-16T12:05:26.619Z,9.35
2023-03-16T12:07:06.150Z,9.35
2023-03-16T12:08:32.965Z,9.95
2023-03-16T12:09:59.897Z,16.25
2023-03-16T12:11:02.903Z,15.88
2023-03-16T12:12:22.209Z,10.82
2023-03-16T12:13:33.841Z,14.32
2023-03-16T12:14:44.219Z,10.65
2023-03-16T12:15:51.688Z,11.55
2023-03-16T12:17:01.263Z,9.02
2023-03-16T12:18:31.565Z,12.20
2023-03-16T12:19:54.217Z,13.10
2023-03-16T12:21:05.815Z,12.07
2023-03-16T12:22:18.634Z,20.02
2023-03-16T12:23:29.940Z,17.60
2023-03-16T12:24:38.997Z,14.65
2023-03-16T12:25:46.066Z,19.35
2023-03-16T12:26:49.701Z,12.43
2023-03-16T12:27:58.080Z,13.05
2023-03-16T12:29:08.608Z,11.27
2023-03-16T12:30:30.204Z,9.45
2023-03-16T12:31:44.418Z,10.55
2023-03-16T12:33:02.244Z,9.50
2023-03-16T12:34:17.442Z,10.07
2023-03-16T12:35:31.290Z,8.95
2023-03-16T12:36:58.607Z,10.75
2023-03-16T12:38:38.414Z,14.98
2023-03-16T12:40:07.888Z,9.32
2023-03-16T12:41:52.537Z,9.18
2023-03-16T12:43:18.026Z,7.18
2023-03-16T12:44:22.844Z,12.43
2023-03-16T12:45:57.398Z,9.13
2023-03-16T12:47:31.434Z,11.10
2023-03-16T12:48:53.907Z,11.10
2023-03-16T12:50:07.348Z,12.20
2023-03-16T12:51:10.147Z,8.68
2023-03-16T12:52:14.685Z,8.80
2023-03-16T12:53:46.867Z,6.93
2023-03-16T12:54:55.032Z,9.30
2023-03-16T12:55:58.019Z,10.38
2023-03-16T12:57:08.342Z,13.27
2023-03-16T12:58:12.606Z,9.88
2023-03-16T12:59:21.061Z,8.13
2023-03-16T13:00:37.510Z,5.82
2023-03-16T13:01:43.808Z,7.43
2023-03-16T13:02:53.611Z,11.05
2023-03-16T13:04:09.714Z,9.52
2023-03-16T13:05:18.791Z,12.88
2023-03-16T13:06:24.251Z,10.43
2023-03-16T13:07:29.445Z,9.50
2023-03-16T13:08:46.922Z,14.75
2023-03-16T13:10:14.957Z,14.55
2023-03-16T13:11:17.811Z,13.50
2023-03-16T13:12:42.054Z,20.45
2023-03-16T13:14:13.597Z,15.05
2023-03-16T13:15:19.822Z,17.13
2023-03-16T13:16:29.474Z,14.00
2023-03-16T13:17:33.474Z,15.57
2023-03-16T13:18:41.851Z,12.07
2023-03-16T13:19:46.703Z,7.25
2023-03-16T13:21:00.965Z,13.88
2023-03-16T13:22:22.252Z,11.15
2023-03-16T13:23:31.354Z,13.57
2023-03-16T13:24:40.108Z,6.65
2023-03-16T13:25:44.636Z,7.53
2023-03-16T13:26:49.618Z,10.65
2023-03-16T13:27:56.240Z,15.48
2023-03-16T13:28:59.223Z,5.75
2023-03-16T13:30:13.288Z,10.10
2023-03-16T13:31:29.874Z,9.68
2023-03-16T13:32:33.609Z,4.85
2023-03-16T13:33:37.489Z,8.27
2023-03-16T13:34:51.549Z,5.05
2023-03-16T13:35:56.444Z,8.43
2023-03-16T13:37:01.536Z,8.20
2023-03-16T13:38:08.190Z,7.75
2023-03-16T13:39:17.525Z,8.80
2023-03-16T13:40:27.831Z,10.27
2023-03-16T13:41:31.438Z,6.32
2023-03-16T13:42:34.368Z,15.05
2023-03-16T13:43:39.798Z,7.07
2023-03-16T13:44:42.973Z,12.00
2023-03-16T13:45:45.876Z,9.57
2023-03-16T13:46:50.853Z,6.20
2023-03-16T13:47:53.659Z,6.78
2023-03-16T13:49:00.852Z,8.07
2023-03-16T13:50:03.626Z,6.82
2023-03-16T13:51:15.761Z,4.47
2023-03-16T13:52:26.195Z,7.85
2023-03-16T13:53:30.512Z,4.70
2023-03-16T13:54:33.276Z,9.07
2023-03-16T13:55:36.868Z,7.03
2023-03-16T13:56:40.248Z,7.20
2023-03-16T13:57:44.150Z,9.75
2023-03-16T13:58:49.258Z,12.82
2023-03-16T13:59:59.091Z,8.50
2023-03-16T14:01:04.956Z,4.63
2023-03-16T14:02:18.106Z,8.98
2023-03-16T14:03:22.454Z,7.53
2023-03-16T14:04:32.870Z,8.70
2023-03-16T14:05:36.378Z,12.45
2023-03-16T14:06:41.292Z,9.13
2023-03-16T14:07:46.789Z,7.65
2023-03-16T14:08:52.525Z,7.95
2023-03-16T14:09:58.694Z,5.00
2023-03-16T14:11:01.846Z,5.20
2023-03-16T14:12:04.765Z,6.55
2023-03-16T14:13:29.117Z,9.90
2023-03-16T14:14:39.387Z,7.32
2023-03-16T14:15:42.349Z,9.80
2023-03-16T14:16:45.854Z,11.93
2023-03-16T14:17:48.509Z,13.02
2023-03-16T14:19:19.248Z,11.60
2023-03-16T14:20:24.149Z,13.05
2023-03-16T14:21:28.761Z,12.57
2023-03-16T14:22:37.248Z,7.82
2023-03-16T14:23:45.524Z,13.32
2023-03-16T14:24:54.834Z,7.50
2023-03-16T14:25:59.667Z,13.18
2023-03-16T14:27:17.573Z,8.30
2023-03-16T14:28:23.122Z,16.10
2023-03-16T14:29:30.638Z,7.05
2023-03-16T14:30:33.180Z,11.93
2023-03-16T14:31:41.019Z,12.75
2023-03-16T14:33:01.460Z,12.27
2023-03-16T14:34:08.902Z,16.05
2023-03-16T14:35:15.369Z,11.02
2023-03-16T14:36:19.659Z,13.40
2023-03-16T14:37:22.283Z,18.88
2023-03-16T14:38:28.161Z,15.70
2023-03-16T14:39:30.648Z,16.17
2023-03-16T14:40:33.426Z,18.10
2023-03-16T14:41:36.983Z,11.45